Time;durP1;ratioP1;P1;durP2;ratioP2;P2;SDS_P1;SDS_P2;PMS_P1;PMS_P2;Temp;Humidity;BMP_temperature;BMP_pressure;BME280_temperature;BME280_humidity;BME280_pressure;Samples;Min_cycle;Max_cycle;Signal;HPM_P1;HPM_P2
2020/12/06 00:00:47;;;;;;;46.90;23.95;;;3.20;99.90;;;;;;5035433;28;20026;-52
2020/12/06 00:03:13;;;;;;;41.70;24.08;;;3.20;99.90;;;;;;5032389;28;20036;-51
2020/12/06 00:05:40;;;;;;;45.05;23.98;;;3.20;99.90;;;;;;5034298;28;20029;-50
2020/12/06 00:08:06;;;;;;;41.70;23.77;;;3.20;99.90;;;;;;5032698;28;20507;-49
2020/12/06 00:10:31;;;;;;;42.25;23.42;;;3.20;99.90;;;;;;5025550;28;20117;-49
2020/12/06 00:12:57;;;;;;;45.30;24.45;;;3.20;99.90;;;;;;5027131;28;20101;-49
2020/12/06 00:15:22;;;;;;;39.47;22.48;;;3.20;99.90;;;;;;5027681;28;20020;-49
2020/12/06 00:17:48;;;;;;;45.72;23.45;;;3.20;99.90;;;;;;5027265;28;20538;-49
2020/12/06 00:20:13;;;;;;;39.25;21.13;;;3.20;99.90;;;;;;5027341;28;20079;-50
2020/12/06 00:22:39;;;;;;;39.92;22.58;;;3.20;99.90;;;;;;5026427;28;20091;-49
2020/12/06 00:25:05;;;;;;;40.25;23.02;;;3.20;99.90;;;;;;5027174;28;20028;-48
2020/12/06 00:27:36;;;;;;;43.38;23.50;;;3.20;99.90;;;;;;5027327;28;20030;-48
2020/12/06 00:30:08;;;;;;;44.10;24.75;;;3.20;99.90;;;;;;5027091;28;20010;-51
2020/12/06 00:32:33;;;;;;;39.20;24.13;;;3.20;99.90;;;;;;5025192;28;20033;-46
2020/12/06 00:34:59;;;;;;;38.67;21.73;;;3.20;99.90;;;;;;5026941;28;20036;-48
2020/12/06 00:37:24;;;;;;;43.85;22.55;;;3.20;99.90;;;;;;5029673;28;20044;-48
2020/12/06 00:39:49;;;;;;;42.38;23.58;;;3.20;99.90;;;;;;5027168;28;20030;-47
2020/12/06 00:42:15;;;;;;;42.60;21.67;;;3.20;99.90;;;;;;5025208;28;20056;-49
2020/12/06 00:44:40;;;;;;;45.25;24.45;;;3.30;99.90;;;;;;5026531;28;20022;-49
2020/12/06 00:47:06;;;;;;;41.25;23.70;;;3.20;99.90;;;;;;5034795;28;20104;-45
2020/12/06 00:49:32;;;;;;;42.47;23.83;;;3.20;99.90;;;;;;5027697;28;20032;-48
2020/12/06 00:51:58;;;;;;;43.15;25.33;;;3.30;99.90;;;;;;5026432;28;20036;-47
2020/12/06 00:54:24;;;;;;;44.30;24.65;;;3.30;99.90;;;;;;5026967;28;20025;-47
2020/12/06 00:56:57;;;;;;;43.78;24.90;;;3.30;99.90;;;;;;5027049;28;20483;-48
2020/12/06 00:59:24;;;;;;;39.97;23.42;;;3.30;99.90;;;;;;5026539;28;20017;-48
2020/12/06 01:01:49;;;;;;;39.35;24.60;;;3.30;99.90;;;;;;5025516;28;20037;-48
2020/12/06 01:04:15;;;;;;;37.05;22.23;;;3.30;99.90;;;;;;5028465;28;20022;-48
2020/12/06 01:06:40;;;;;;;39.17;22.05;;;3.30;99.90;;;;;;5027693;28;20026;-48
2020/12/06 01:09:06;;;;;;;49.38;24.83;;;3.20;99.90;;;;;;5027746;28;20029;-45
2020/12/06 01:11:31;;;;;;;40.05;23.35;;;3.30;99.90;;;;;;5027672;28;20033;-47
2020/12/06 01:13:57;;;;;;;39.63;23.17;;;3.20;99.90;;;;;;5027136;28;20391;-50
2020/12/06 01:16:22;;;;;;;40.13;23.05;;;3.30;99.90;;;;;;5027604;28;20030;-48
2020/12/06 01:18:48;;;;;;;44.47;24.92;;;3.30;99.90;;;;;;5027471;28;20029;-46
2020/12/06 01:21:13;;;;;;;41.05;24.48;;;3.30;99.90;;;;;;5033265;28;20028;-47
2020/12/06 01:23:39;;;;;;;39.20;23.30;;;3.30;99.90;;;;;;5027875;28;20026;-46
2020/12/06 01:26:05;;;;;;;42.58;21.90;;;3.30;99.90;;;;;;5027524;28;20589;-47
2020/12/06 01:28:30;;;;;;;43.53;23.23;;;3.30;99.90;;;;;;5027413;28;20029;-46
2020/12/06 01:30:56;;;;;;;43.75;23.50;;;3.30;99.90;;;;;;5027059;28;20082;-47
2020/12/06 01:33:21;;;;;;;39.42;21.80;;;3.30;99.90;;;;;;5027888;28;20493;-47
2020/12/06 01:35:47;;;;;;;40.47;22.45;;;3.30;99.90;;;;;;5045786;28;20605;-48
2020/12/06 01:38:12;;;;;;;42.65;22.17;;;3.30;99.90;;;;;;5047800;28;20104;-47
2020/12/06 01:40:42;;;;;;;44.10;24.40;;;3.30;99.90;;;;;;5045633;28;20029;-47
2020/12/06 01:43:11;;;;;;;41.08;24.05;;;3.30;99.90;;;;;;5047201;28;20032;-49
2020/12/06 01:45:38;;;;;;;46.35;24.52;;;3.40;99.90;;;;;;5047510;28;20022;-48
2020/12/06 01:48:07;;;;;;;44.75;24.95;;;3.30;99.90;;;;;;5047701;28;20017;-48
2020/12/06 01:50:34;;;;;;;42.25;23.20;;;3.30;99.90;;;;;;5047052;28;20064;-49
2020/12/06 01:53:00;;;;;;;40.65;23.17;;;3.30;99.90;;;;;;5047416;28;20421;-48
2020/12/06 01:55:26;;;;;;;41.17;22.90;;;3.30;99.90;;;;;;5047351;28;20028;-49
2020/12/06 01:57:51;;;;;;;41.55;23.05;;;3.30;99.90;;;;;;5047440;28;20481;-48
2020/12/06 02:00:17;;;;;;;39.55;21.63;;;3.30;99.90;;;;;;5050737;28;20021;-48
2020/12/06 02:02:42;;;;;;;42.53;23.63;;;3.40;99.90;;;;;;5050703;28;20544;-48
2020/12/06 02:05:08;;;;;;;39.85;22.05;;;3.40;99.90;;;;;;5051083;28;20103;-49
2020/12/06 02:07:35;;;;;;;39.40;22.75;;;3.30;99.90;;;;;;5051140;28;20048;-48
2020/12/06 02:10:01;;;;;;;42.72;22.88;;;3.30;99.90;;;;;;5051346;28;20017;-50
2020/12/06 02:12:26;;;;;;;42.92;23.42;;;3.40;99.90;;;;;;5050483;28;20502;-48
2020/12/06 02:14:52;;;;;;;39.20;21.92;;;3.40;99.90;;;;;;5050491;28;20020;-49
2020/12/06 02:17:17;;;;;;;37.75;21.60;;;3.30;99.90;;;;;;5050762;28;20120;-49
2020/12/06 02:19:43;;;;;;;37.25;22.20;;;3.30;99.90;;;;;;5050977;28;20041;-49
2020/12/06 02:22:08;;;;;;;42.58;22.98;;;3.40;99.90;;;;;;5050017;28;20541;-49
2020/12/06 02:24:34;;;;;;;41.30;22.98;;;3.40;99.90;;;;;;5050698;28;20047;-51
2020/12/06 02:26:59;;;;;;;40.83;22.88;;;3.40;99.90;;;;;;5050650;28;20369;-49
2020/12/06 02:29:25;;;;;;;45.30;25.13;;;3.40;99.90;;;;;;5050578;28;20391;-48
2020/12/06 02:31:50;;;;;;;43.60;25.75;;;3.40;99.90;;;;;;5048554;28;20108;-52
2020/12/06 02:34:16;;;;;;;45.17;24.27;;;3.40;99.90;;;;;;5036417;28;20047;-49
2020/12/06 02:36:41;;;;;;;43.50;24.00;;;3.50;99.90;;;;;;5050526;28;20031;-47
2020/12/06 02:39:10;;;;;;;40.30;22.33;;;3.50;99.90;;;;;;5050270;28;20553;-48
2020/12/06 02:41:40;;;;;;;45.03;24.88;;;3.60;99.90;;;;;;5049873;28;20060;-48
2020/12/06 02:44:07;;;;;;;43.45;24.92;;;3.50;99.90;;;;;;5050062;28;20024;-47
2020/12/06 02:46:33;;;;;;;42.75;23.27;;;3.60;99.90;;;;;;5050368;28;20029;-49
2020/12/06 02:49:00;;;;;;;41.53;23.67;;;3.60;99.90;;;;;;5050302;28;20025;-48
2020/12/06 02:51:26;;;;;;;42.58;23.33;;;3.60;99.90;;;;;;5049810;28;20017;-50
2020/12/06 02:53:51;;;;;;;45.22;24.55;;;3.60;99.90;;;;;;5050223;28;20102;-48
2020/12/06 02:56:17;;;;;;;41.85;23.75;;;3.70;99.90;;;;;;5050179;28;20032;-47
2020/12/06 02:58:42;;;;;;;40.08;23.60;;;3.70;99.90;;;;;;5050060;28;20039;-48
2020/12/06 03:01:08;;;;;;;41.10;23.95;;;3.60;99.90;;;;;;5049228;28;20048;-47
2020/12/06 03:03:34;;;;;;;45.30;24.67;;;3.70;99.90;;;;;;5050150;28;20143;-48
2020/12/06 03:05:59;;;;;;;43.55;24.23;;;3.70;99.90;;;;;;5049708;28;20021;-47
2020/12/06 03:08:25;;;;;;;43.17;23.83;;;3.70;99.90;;;;;;5048483;28;20025;-51
2020/12/06 03:10:50;;;;;;;45.72;23.27;;;3.70;99.90;;;;;;5049228;28;20390;-46
2020/12/06 03:13:16;;;;;;;41.17;23.85;;;3.70;99.90;;;;;;5048594;28;20033;-47
2020/12/06 03:15:41;;;;;;;43.03;22.95;;;3.70;99.90;;;;;;5049857;28;20028;-48
2020/12/06 03:18:07;;;;;;;45.90;25.20;;;3.70;99.90;;;;;;5049960;28;20048;-47
2020/12/06 03:20:32;;;;;;;47.90;26.05;;;3.70;99.90;;;;;;5049049;28;20025;-47
2020/12/06 03:22:59;;;;;;;50.92;27.35;;;3.70;99.90;;;;;;5049851;28;20029;-48
2020/12/06 03:25:25;;;;;;;46.63;25.58;;;3.70;99.90;;;;;;5049973;28;20067;-47
2020/12/06 03:27:50;;;;;;;45.65;26.00;;;3.70;99.90;;;;;;5048640;28;20032;-46
2020/12/06 03:30:16;;;;;;;45.13;25.27;;;3.70;99.90;;;;;;5049456;28;20025;-46
2020/12/06 03:32:41;;;;;;;50.22;27.63;;;3.70;99.90;;;;;;5042177;28;20036;-46
2020/12/06 03:35:07;;;;;;;46.60;26.38;;;3.70;99.90;;;;;;5037297;28;20029;-46
2020/12/06 03:37:32;;;;;;;48.00;25.92;;;3.70;99.90;;;;;;5047747;28;20025;-47
2020/12/06 03:39:58;;;;;;;50.72;27.65;;;3.70;99.90;;;;;;5049291;28;20209;-48
2020/12/06 03:42:23;;;;;;;42.75;24.63;;;3.70;99.90;;;;;;5048577;28;20102;-46
2020/12/06 03:44:49;;;;;;;53.20;27.60;;;3.70;99.90;;;;;;5048887;28;20064;-46
2020/12/06 03:47:17;;;;;;;46.17;26.40;;;3.70;99.90;;;;;;5049039;28;20535;-47
2020/12/06 03:49:43;;;;;;;51.42;26.63;;;3.70;99.90;;;;;;5049219;28;20387;-47
2020/12/06 03:52:08;;;;;;;45.22;26.02;;;3.70;99.90;;;;;;5048366;28;20039;-47
2020/12/06 03:54:34;;;;;;;49.88;27.13;;;3.70;99.90;;;;;;5048484;28;20025;-46
2020/12/06 03:56:59;;;;;;;48.38;26.50;;;3.60;99.90;;;;;;5048131;28;20037;-49
2020/12/06 03:59:26;;;;;;;47.13;24.35;;;3.60;99.90;;;;;;5037601;28;20387;-47
2020/12/06 04:01:51;;;;;;;43.92;24.60;;;3.60;99.90;;;;;;5027770;28;20025;-46
2020/12/06 04:04:18;;;;;;;45.38;24.60;;;3.60;99.90;;;;;;5027874;28;20031;-46
2020/12/06 04:06:43;;;;;;;50.13;27.50;;;3.60;99.90;;;;;;5028241;28;20018;-47
2020/12/06 04:09:09;;;;;;;47.50;25.60;;;3.60;99.90;;;;;;5028362;28;20024;-47
2020/12/06 04:11:34;;;;;;;49.85;27.77;;;3.60;99.90;;;;;;5029505;28;20034;-47
2020/12/06 04:14:00;;;;;;;49.80;26.67;;;3.60;99.90;;;;;;5028791;28;20044;-47
2020/12/06 04:16:26;;;;;;;49.72;25.83;;;3.60;99.90;;;;;;5027231;28;20037;-45
2020/12/06 04:18:52;;;;;;;46.78;26.25;;;3.60;99.90;;;;;;5025881;28;20026;-47
2020/12/06 04:21:17;;;;;;;45.15;25.90;;;3.60;99.90;;;;;;5025770;28;20036;-47
2020/12/06 04:23:43;;;;;;;45.78;25.40;;;3.60;99.90;;;;;;5027437;28;20103;-47
2020/12/06 04:26:09;;;;;;;49.50;26.48;;;3.60;99.90;;;;;;5027798;28;20048;-46
2020/12/06 04:28:35;;;;;;;48.03;26.30;;;3.60;99.90;;;;;;5027433;28;20025;-46
2020/12/06 04:31:00;;;;;;;49.38;27.98;;;3.60;99.90;;;;;;5031656;28;20036;-47
2020/12/06 04:33:27;;;;;;;47.45;26.60;;;3.60;99.90;;;;;;5027598;28;20150;-46
2020/12/06 04:35:52;;;;;;;53.03;28.05;;;3.60;99.90;;;;;;5027968;28;20025;-46
2020/12/06 04:38:19;;;;;;;45.25;24.50;;;3.60;99.90;;;;;;5028176;28;20048;-48
2020/12/06 04:40:46;;;;;;;49.13;26.58;;;3.60;99.90;;;;;;5025818;28;20029;-45
2020/12/06 04:43:14;;;;;;;52.45;27.27;;;3.60;99.90;;;;;;5019456;28;20017;-47
2020/12/06 04:45:39;;;;;;;48.85;25.55;;;3.60;99.90;;;;;;5032636;28;20025;-46
2020/12/06 04:48:06;;;;;;;44.72;24.60;;;3.60;99.90;;;;;;5028362;28;20029;-46
2020/12/06 04:50:37;;;;;;;42.80;24.42;;;3.60;99.90;;;;;;5027697;28;20021;-47
2020/12/06 04:53:05;;;;;;;47.78;26.15;;;3.60;99.90;;;;;;5030609;28;20048;-47
2020/12/06 04:55:33;;;;;;;46.70;25.67;;;3.60;99.90;;;;;;5027967;28;20396;-50
2020/12/06 04:58:00;;;;;;;52.50;28.02;;;3.60;99.90;;;;;;5028058;28;20439;-48
2020/12/06 05:00:34;;;;;;;49.95;28.70;;;3.60;99.90;;;;;;5034152;28;20017;-47
2020/12/06 05:03:02;;;;;;;49.83;25.73;;;3.60;99.90;;;;;;5029669;28;20032;-45
2020/12/06 05:05:34;;;;;;;47.45;25.55;;;3.60;99.90;;;;;;5026966;28;20025;-47
2020/12/06 05:08:06;;;;;;;49.55;27.58;;;3.60;99.90;;;;;;5026942;28;20020;-45
2020/12/06 05:10:46;;;;;;;47.47;26.52;;;3.60;99.90;;;;;;5027576;28;20029;-46
2020/12/06 05:13:12;;;;;;;50.30;28.23;;;3.60;99.90;;;;;;5028185;28;20071;-46
2020/12/06 05:15:38;;;;;;;51.30;27.63;;;3.60;99.90;;;;;;5027860;28;20225;-47
2020/12/06 05:18:04;;;;;;;43.13;25.20;;;3.60;99.90;;;;;;5028044;28;20028;-48
2020/12/06 05:20:30;;;;;;;48.05;27.58;;;3.60;99.90;;;;;;5027198;28;20032;-47
2020/12/06 05:22:56;;;;;;;50.72;26.00;;;3.60;99.90;;;;;;5027771;28;20071;-46
2020/12/06 05:25:23;;;;;;;45.85;27.35;;;3.60;99.90;;;;;;5027809;28;20013;-47
2020/12/06 05:27:48;;;;;;;47.75;26.65;;;3.60;99.90;;;;;;5027851;28;20024;-48
2020/12/06 05:30:15;;;;;;;45.35;25.25;;;3.60;99.90;;;;;;5026994;28;20021;-48
2020/12/06 05:32:41;;;;;;;45.67;26.70;;;3.60;99.90;;;;;;5027264;28;20030;-47
2020/12/06 05:35:08;;;;;;;48.63;24.88;;;3.60;99.90;;;;;;5043459;28;20031;-47
2020/12/06 05:37:38;;;;;;;51.35;28.00;;;3.50;99.90;;;;;;5051485;28;20295;-47
2020/12/06 05:40:08;;;;;;;50.42;28.35;;;3.60;99.90;;;;;;5051632;28;20020;-48
2020/12/06 05:42:35;;;;;;;50.72;27.10;;;3.60;99.90;;;;;;5050733;28;20039;-46
2020/12/06 05:45:01;;;;;;;48.75;27.55;;;3.60;99.90;;;;;;5051290;28;20021;-47
2020/12/06 05:47:28;;;;;;;50.33;26.20;;;3.50;99.90;;;;;;5051293;28;20044;-46
2020/12/06 05:49:58;;;;;;;48.60;26.23;;;3.50;99.90;;;;;;5051688;28;20106;-47
2020/12/06 05:52:26;;;;;;;46.25;26.05;;;3.50;99.90;;;;;;5050739;28;20082;-45
2020/12/06 05:54:53;;;;;;;46.83;25.63;;;3.60;99.90;;;;;;5050234;28;20563;-45
2020/12/06 05:57:19;;;;;;;47.33;24.75;;;3.60;99.90;;;;;;5051325;28;20044;-46
2020/12/06 05:59:45;;;;;;;49.55;26.67;;;3.60;99.90;;;;;;5050797;28;20070;-46
2020/12/06 06:02:14;;;;;;;48.78;25.05;;;3.60;99.90;;;;;;5050806;28;20116;-46
2020/12/06 06:04:40;;;;;;;47.28;26.20;;;3.60;99.90;;;;;;5050984;28;20036;-46
2020/12/06 06:07:21;;;;;;;53.25;27.23;;;3.60;99.90;;;;;;5050928;28;20020;-48
2020/12/06 06:09:50;;;;;;;48.90;26.33;;;3.60;99.90;;;;;;5050944;28;20044;-47
2020/12/06 06:12:24;;;;;;;47.20;25.00;;;3.60;99.90;;;;;;5050408;28;20398;-50
2020/12/06 06:14:51;;;;;;;48.55;26.05;;;3.60;99.90;;;;;;5050606;28;20478;-48
2020/12/06 06:17:18;;;;;;;47.08;25.13;;;3.50;99.90;;;;;;5050827;28;20106;-48
2020/12/06 06:19:47;;;;;;;46.65;25.83;;;3.60;99.90;;;;;;5050643;28;20121;-47
2020/12/06 06:22:15;;;;;;;47.17;26.63;;;3.60;99.90;;;;;;5048643;28;20436;-47
2020/12/06 06:24:41;;;;;;;47.65;26.27;;;3.60;99.90;;;;;;5050543;28;20021;-46
2020/12/06 06:27:07;;;;;;;46.60;26.00;;;3.60;99.90;;;;;;5045464;28;20025;-48
2020/12/06 06:29:36;;;;;;;47.95;25.02;;;3.60;99.90;;;;;;5030392;28;20067;-49
2020/12/06 06:32:03;;;;;;;47.55;26.23;;;3.60;99.90;;;;;;5032116;28;20022;-48
2020/12/06 06:34:30;;;;;;;48.58;25.70;;;3.60;99.90;;;;;;5030419;28;20482;-47
2020/12/06 06:36:56;;;;;;;47.35;25.38;;;3.60;99.90;;;;;;5029646;28;20017;-49
2020/12/06 06:39:23;;;;;;;47.90;26.10;;;3.60;99.90;;;;;;5029541;28;20037;-48
2020/12/06 06:42:10;;;;;;;44.63;24.95;;;3.50;99.90;;;;;;5029392;28;20065;-50
2020/12/06 06:44:41;;;;;;;50.60;26.85;;;3.50;99.90;;;;;;5029384;28;20045;-48
2020/12/06 06:47:09;;;;;;;50.80;25.85;;;3.60;99.90;;;;;;5029364;28;20014;-49
2020/12/06 06:49:58;;;;;;;53.30;27.13;;;3.60;99.90;;;;;;5031126;28;20272;-47
2020/12/06 06:52:26;;;;;;;43.60;25.05;;;3.60;99.90;;;;;;5031820;28;20386;-46
2020/12/06 06:54:53;;;;;;;55.28;28.15;;;3.60;99.90;;;;;;5028468;28;20025;-49
2020/12/06 06:57:20;;;;;;;51.28;26.27;;;3.60;99.90;;;;;;5029677;28;20045;-49
2020/12/06 06:59:48;;;;;;;48.25;26.50;;;3.60;99.90;;;;;;5029184;28;20509;-49
2020/12/06 07:02:29;;;;;;;47.08;25.92;;;3.60;99.90;;;;;;5031912;28;20029;-47
2020/12/06 07:04:55;;;;;;;47.03;24.88;;;3.60;99.90;;;;;;5029523;28;20049;-47
2020/12/06 07:07:49;;;;;;;50.92;27.33;;;3.60;99.90;;;;;;5029660;28;20112;-46
2020/12/06 07:10:17;;;;;;;48.70;25.10;;;3.60;99.90;;;;;;5028521;28;20072;-48
2020/12/06 07:12:49;;;;;;;49.33;25.63;;;3.60;99.90;;;;;;5032136;28;20035;-48
2020/12/06 07:15:17;;;;;;;47.60;26.83;;;3.60;99.90;;;;;;5030508;28;20375;-48
2020/12/06 07:17:44;;;;;;;43.03;24.73;;;3.60;99.90;;;;;;5030667;28;20032;-48
2020/12/06 07:20:12;;;;;;;50.70;25.83;;;3.60;99.90;;;;;;5030350;28;20025;-46
2020/12/06 07:22:38;;;;;;;49.47;25.23;;;3.60;99.90;;;;;;5029972;28;20131;-48
2020/12/06 07:25:05;;;;;;;44.80;25.50;;;3.70;99.90;;;;;;5030358;28;20029;-49
2020/12/06 07:27:32;;;;;;;48.00;25.77;;;3.70;99.90;;;;;;5029959;28;20022;-47
2020/12/06 07:29:58;;;;;;;47.38;24.92;;;3.70;99.90;;;;;;5030143;28;20025;-50
2020/12/06 07:32:24;;;;;;;44.15;24.17;;;3.70;99.90;;;;;;5029621;28;20033;-47
2020/12/06 07:34:49;;;;;;;46.88;26.38;;;3.70;99.90;;;;;;5030121;28;20025;-47
2020/12/06 07:40:37;;;;;;;49.15;25.45;;;3.70;99.90;;;;;;5029700;28;20059;-48
2020/12/06 07:43:13;;;;;;;47.35;25.15;;;3.70;99.90;;;;;;5030630;28;20014;-47
2020/12/06 07:45:39;;;;;;;43.40;25.48;;;3.70;99.90;;;;;;5030309;28;20053;-46
2020/12/06 07:48:05;;;;;;;45.85;25.00;;;3.70;99.90;;;;;;5030643;28;20016;-47
2020/12/06 07:50:30;;;;;;;49.72;27.00;;;3.80;99.90;;;;;;5030006;28;20029;-48
2020/12/06 07:53:02;;;;;;;47.60;26.02;;;3.80;99.90;;;;;;5029136;28;20044;-50
2020/12/06 07:55:27;;;;;;;49.10;25.70;;;3.80;99.90;;;;;;5030292;28;20422;-46
2020/12/06 07:57:56;;;;;;;49.33;26.42;;;3.80;99.90;;;;;;5029631;28;20028;-46
2020/12/06 08:00:29;;;;;;;47.35;25.83;;;3.80;99.90;;;;;;5029657;28;20024;-48
2020/12/06 08:02:58;;;;;;;44.33;24.23;;;3.80;99.90;;;;;;5028876;28;20028;-49
2020/12/06 08:05:27;;;;;;;46.00;24.63;;;3.80;99.90;;;;;;5030166;28;20035;-47
2020/12/06 08:07:57;;;;;;;42.88;25.23;;;3.80;99.90;;;;;;5029010;28;20022;-47
2020/12/06 08:10:25;;;;;;;44.67;26.13;;;3.80;99.90;;;;;;5029686;28;20020;-47
2020/12/06 08:12:53;;;;;;;47.15;24.98;;;3.80;99.90;;;;;;5030214;28;20442;-46
2020/12/06 08:15:23;;;;;;;45.95;26.73;;;3.90;99.90;;;;;;5035475;28;20033;-47
2020/12/06 08:17:50;;;;;;;48.20;24.27;;;3.90;99.90;;;;;;5030116;28;20376;-49
2020/12/06 08:20:18;;;;;;;49.28;27.33;;;3.90;99.90;;;;;;5030112;28;20037;-48
2020/12/06 08:22:58;;;;;;;50.88;26.63;;;3.90;99.90;;;;;;5029656;28;20025;-49
2020/12/06 08:25:30;;;;;;;49.35;26.08;;;3.90;99.90;;;;;;5029832;28;20041;-47
2020/12/06 08:27:58;;;;;;;39.40;22.80;;;3.90;99.90;;;;;;5030008;28;20021;-48
2020/12/06 08:30:27;;;;;;;46.33;24.75;;;3.90;99.90;;;;;;5028923;28;20483;-49
2020/12/06 08:33:04;;;;;;;56.30;26.45;;;4.00;99.90;;;;;;5037924;28;20582;-47
2020/12/06 08:35:46;;;;;;;46.70;25.65;;;3.90;99.90;;;;;;5048421;28;20074;-48
2020/12/06 08:38:20;;;;;;;44.60;24.67;;;4.00;99.90;;;;;;5030094;28;20524;-49
2020/12/06 08:41:09;;;;;;;48.20;25.35;;;4.00;99.90;;;;;;5031101;28;20084;-48
2020/12/06 08:43:45;;;;;;;46.80;25.88;;;4.00;99.90;;;;;;5027790;28;20100;-46
2020/12/06 08:46:13;;;;;;;47.40;24.30;;;4.00;99.90;;;;;;5027610;28;20036;-48
2020/12/06 08:48:39;;;;;;;49.30;27.52;;;4.10;99.90;;;;;;5028395;28;20033;-46
2020/12/06 08:51:05;;;;;;;46.45;26.55;;;4.10;99.90;;;;;;5027588;28;20155;-46
2020/12/06 08:53:44;;;;;;;49.03;26.83;;;4.10;99.90;;;;;;5028095;28;20526;-47
2020/12/06 08:56:31;;;;;;;47.65;24.80;;;4.10;99.90;;;;;;5027927;28;20052;-47
2020/12/06 08:59:14;;;;;;;44.55;24.30;;;4.20;99.90;;;;;;5028569;28;20017;-47
2020/12/06 09:01:58;;;;;;;45.90;24.15;;;4.20;99.90;;;;;;5028657;28;20060;-48
2020/12/06 09:04:23;;;;;;;48.40;25.67;;;4.20;99.90;;;;;;5029238;28;20316;-48
2020/12/06 09:06:54;;;;;;;48.53;23.65;;;4.30;99.90;;;;;;5029383;28;20033;-48
2020/12/06 09:09:19;;;;;;;47.17;27.88;;;4.30;99.90;;;;;;5033057;28;20107;-48
2020/12/06 09:11:44;;;;;;;50.67;28.95;;;4.30;99.90;;;;;;5033074;28;20507;-48
2020/12/06 09:14:10;;;;;;;46.70;25.15;;;4.30;99.90;;;;;;5033401;28;20056;-45
2020/12/06 09:16:38;;;;;;;48.15;25.45;;;4.30;99.90;;;;;;5033282;28;20029;-47
2020/12/06 09:19:04;;;;;;;43.25;24.15;;;4.40;99.90;;;;;;5033303;28;20554;-48
2020/12/06 09:21:29;;;;;;;47.08;27.42;;;4.30;99.90;;;;;;5032698;28;20132;-45
2020/12/06 09:23:55;;;;;;;46.13;25.17;;;4.40;99.90;;;;;;5033447;28;20383;-45
2020/12/06 09:26:20;;;;;;;44.35;23.70;;;4.40;99.90;;;;;;5033045;28;20022;-47
2020/12/06 09:28:46;;;;;;;43.60;25.95;;;4.40;99.90;;;;;;5033252;28;20029;-47
2020/12/06 09:31:11;;;;;;;46.58;25.88;;;4.40;99.90;;;;;;5032255;28;20057;-46
2020/12/06 09:33:37;;;;;;;43.45;24.63;;;4.40;99.90;;;;;;5033336;28;20044;-48
2020/12/06 09:36:03;;;;;;;47.13;26.77;;;4.40;99.90;;;;;;5053071;28;20059;-49
2020/12/06 09:38:28;;;;;;;44.58;25.23;;;4.40;99.90;;;;;;5053098;28;20033;-46
2020/12/06 09:40:54;;;;;;;49.08;27.00;;;4.50;99.90;;;;;;5052363;28;20032;-48
2020/12/06 09:43:19;;;;;;;48.75;24.83;;;4.40;99.90;;;;;;5037374;28;20028;-48
2020/12/06 09:45:46;;;;;;;46.85;25.80;;;4.50;99.90;;;;;;5041595;28;20017;-49
2020/12/06 09:48:12;;;;;;;43.90;24.73;;;4.50;99.90;;;;;;5030758;28;20037;-48
2020/12/06 09:50:37;;;;;;;47.63;25.38;;;4.50;99.90;;;;;;5029805;28;20033;-50
2020/12/06 09:53:03;;;;;;;46.60;25.25;;;4.50;99.90;;;;;;5032562;28;20462;-47
2020/12/06 09:55:28;;;;;;;48.70;26.42;;;4.50;99.90;;;;;;5032691;28;20030;-47
2020/12/06 09:57:54;;;;;;;49.53;26.30;;;4.50;99.90;;;;;;5032716;28;20083;-49
2020/12/06 10:00:19;;;;;;;42.83;24.63;;;4.50;99.90;;;;;;5032192;28;20570;-47
2020/12/06 10:02:45;;;;;;;46.65;26.58;;;4.50;99.90;;;;;;5032304;28;20022;-47
2020/12/06 10:05:11;;;;;;;46.70;26.17;;;4.50;99.90;;;;;;5032543;28;20025;-47
2020/12/06 10:07:37;;;;;;;43.03;24.30;;;4.40;99.90;;;;;;5031127;28;20025;-46
2020/12/06 10:10:04;;;;;;;49.97;27.42;;;4.50;99.90;;;;;;5032430;28;20378;-46
2020/12/06 10:12:30;;;;;;;47.53;26.45;;;4.50;99.90;;;;;;5031975;28;20033;-46
2020/12/06 10:14:55;;;;;;;44.85;25.38;;;4.50;99.90;;;;;;5032043;28;20041;-47
2020/12/06 10:17:20;;;;;;;43.00;24.50;;;4.50;99.90;;;;;;5032428;28;20383;-47
2020/12/06 10:19:46;;;;;;;46.50;25.38;;;4.50;99.90;;;;;;5031535;28;20025;-46
2020/12/06 10:22:11;;;;;;;51.17;27.58;;;4.50;99.90;;;;;;5031719;28;20036;-47
2020/12/06 10:24:37;;;;;;;47.10;27.42;;;4.50;99.90;;;;;;5032549;28;20103;-46
2020/12/06 10:27:02;;;;;;;46.03;25.65;;;4.60;99.90;;;;;;5032353;28;20024;-47
2020/12/06 10:29:28;;;;;;;46.78;24.77;;;4.60;99.90;;;;;;5032335;28;20029;-46
2020/12/06 10:31:55;;;;;;;50.08;26.42;;;4.60;99.90;;;;;;5031371;28;20029;-46
2020/12/06 10:34:22;;;;;;;47.58;25.30;;;4.60;99.90;;;;;;5038304;28;20025;-46
2020/12/06 10:36:55;;;;;;;50.90;26.85;;;4.60;99.90;;;;;;5052020;28;20792;-47
2020/12/06 10:39:22;;;;;;;45.90;25.08;;;4.70;99.90;;;;;;5051709;28;20076;-47
2020/12/06 10:41:48;;;;;;;46.65;26.73;;;4.70;99.90;;;;;;5050913;28;20059;-46
2020/12/06 10:44:14;;;;;;;48.97;27.65;;;4.60;99.90;;;;;;5051222;28;20024;-48
2020/12/06 10:46:39;;;;;;;42.47;24.83;;;4.70;99.90;;;;;;5051458;28;20024;-46
2020/12/06 10:49:05;;;;;;;47.58;27.00;;;4.60;99.90;;;;;;5051626;28;20029;-45
2020/12/06 10:51:31;;;;;;;43.47;24.13;;;4.70;99.90;;;;;;5050969;28;20036;-46
2020/12/06 10:53:56;;;;;;;48.67;28.35;;;4.80;99.90;;;;;;5051762;28;20029;-47
2020/12/06 10:56:22;;;;;;;49.72;27.90;;;4.80;99.90;;;;;;5051224;28;20021;-45
2020/12/06 10:58:48;;;;;;;49.25;27.90;;;4.80;99.90;;;;;;5051613;28;20029;-48
2020/12/06 11:01:14;;;;;;;46.28;26.70;;;4.90;99.90;;;;;;5037289;28;20057;-47
2020/12/06 11:03:40;;;;;;;52.42;28.42;;;4.90;99.90;;;;;;5029913;28;20132;-46
2020/12/06 11:06:05;;;;;;;49.20;28.00;;;4.90;99.90;;;;;;5031346;28;20220;-45
2020/12/06 11:08:30;;;;;;;51.92;29.48;;;4.90;99.90;;;;;;5031262;28;20076;-47
2020/12/06 11:10:56;;;;;;;49.53;26.35;;;4.90;99.90;;;;;;5030489;28;20538;-46
2020/12/06 11:13:21;;;;;;;57.50;29.30;;;4.90;99.90;;;;;;5030575;28;20078;-46
2020/12/06 11:15:47;;;;;;;51.95;28.40;;;4.90;99.90;;;;;;5029600;28;20018;-49
2020/12/06 11:18:12;;;;;;;48.25;27.88;;;4.90;99.90;;;;;;5030863;28;20045;-46
2020/12/06 11:20:38;;;;;;;49.90;28.10;;;4.90;99.90;;;;;;5030391;28;20374;-46
2020/12/06 11:23:04;;;;;;;49.53;28.27;;;4.90;99.90;;;;;;5030987;28;20033;-47
2020/12/06 11:25:29;;;;;;;49.85;26.83;;;4.90;99.90;;;;;;5031190;28;20032;-47
2020/12/06 11:27:55;;;;;;;49.15;27.55;;;4.90;99.90;;;;;;5031100;28;20025;-47
2020/12/06 11:30:20;;;;;;;52.05;29.67;;;5.00;99.90;;;;;;5029456;28;20022;-46
2020/12/06 11:32:46;;;;;;;50.80;29.92;;;5.00;99.90;;;;;;5029908;28;20480;-47
2020/12/06 11:35:11;;;;;;;46.17;26.58;;;5.10;99.90;;;;;;5044011;28;20029;-47
2020/12/06 11:37:37;;;;;;;55.03;28.92;;;5.10;99.90;;;;;;5050806;28;20490;-46
2020/12/06 11:40:03;;;;;;;48.75;27.52;;;5.10;99.90;;;;;;5050687;28;20032;-47
2020/12/06 11:42:28;;;;;;;46.38;26.65;;;5.10;99.90;;;;;;5030778;28;20371;-45
2020/12/06 11:44:54;;;;;;;47.38;27.52;;;5.10;99.90;;;;;;5030357;28;20051;-46
2020/12/06 11:47:23;;;;;;;48.55;27.88;;;5.10;99.90;;;;;;5030344;28;20135;-46
2020/12/06 11:49:49;;;;;;;46.15;26.20;;;5.10;99.90;;;;;;5030545;28;20033;-47
2020/12/06 11:52:14;;;;;;;52.35;28.50;;;5.20;99.90;;;;;;5027826;28;20076;-49
2020/12/06 11:54:40;;;;;;;49.13;27.13;;;5.20;99.90;;;;;;5030426;28;20518;-47
2020/12/06 11:57:06;;;;;;;45.97;25.88;;;5.20;99.90;;;;;;5030284;28;20553;-46
2020/12/06 11:59:31;;;;;;;45.15;26.45;;;5.20;99.90;;;;;;5029318;28;20116;-48
2020/12/06 12:01:57;;;;;;;48.22;26.55;;;5.30;99.90;;;;;;5029281;28;20732;-47
2020/12/06 12:04:23;;;;;;;46.30;26.33;;;5.30;99.90;;;;;;5028399;28;20080;-45
2020/12/06 12:06:49;;;;;;;51.47;26.58;;;5.30;99.90;;;;;;5029922;28;20026;-47
2020/12/06 12:09:14;;;;;;;51.42;27.95;;;5.30;99.90;;;;;;5029870;28;20031;-47
2020/12/06 12:11:40;;;;;;;43.95;25.92;;;5.30;99.90;;;;;;5029386;28;20021;-49
2020/12/06 12:14:05;;;;;;;51.60;27.38;;;5.40;99.90;;;;;;5030010;28;20482;-48
2020/12/06 12:16:32;;;;;;;45.90;26.80;;;5.40;99.90;;;;;;5029752;28;20025;-48
2020/12/06 12:19:05;;;;;;;46.80;28.30;;;5.40;99.90;;;;;;5029968;28;20625;-46
2020/12/06 12:21:30;;;;;;;53.05;28.88;;;5.40;99.90;;;;;;5029182;28;20029;-46
2020/12/06 12:23:56;;;;;;;46.08;26.40;;;5.40;99.90;;;;;;5029734;28;20045;-45
2020/12/06 12:26:24;;;;;;;49.75;28.58;;;5.40;99.90;;;;;;5029522;28;20030;-48
2020/12/06 12:28:50;;;;;;;48.83;29.38;;;5.30;99.90;;;;;;5029520;28;20108;-48
2020/12/06 12:31:15;;;;;;;47.97;28.30;;;5.30;99.90;;;;;;5028295;28;20105;-45
2020/12/06 12:33:41;;;;;;;47.60;27.10;;;5.30;99.90;;;;;;5030387;28;20095;-46
2020/12/06 12:36:06;;;;;;;50.45;28.10;;;5.40;99.90;;;;;;5049937;28;20104;-49
2020/12/06 12:38:32;;;;;;;49.60;27.77;;;5.40;99.90;;;;;;5049845;28;20025;-47